Didsbury, United Kingdom
Current Conditions -  °F | °C
As of 2:50 AM on Saturday 22 Nov 2014 (Local Time) from EGCC Reporting Station
Drizzle Drizzle  
Wind Chill: 45°   Ceiling: 900
Heat Index: 48°   Visibility: 4mi
Dew Point: 48°   Wind: 7mph
Humidity: 100%   Direction: 150°SSE
Pressure: 29.77"   Gusts: NA
Location:  53.42°N, 2.23°W
Report Text: EGCC 220250Z 15006KT 6000 DZ BKN009 BKN014 09/09 Q1008 TEMPO 4000
Loading
Personal Weather Stations






























Interactive Weather Map New forecast layout! Learn more

10-Day Weather Forecast

Advertisements
Track Severe Weather on mobile